Terminal Aerodrome Forecast
Issued by NWS

Home | Current Version | Previous Version | Text Only | Print | Product List | Glossary On
Versions: 1 2 3 4 5 6 7 8 9 10 11 12 13
000
FTUS42 TJSJ 011100
TAFJBQ
TAF
TJBQ 011120Z 0112/0212 11010KT P6SM FEW025 SCT060
     FM011330 07012KT P6SM FEW030 SCT050
     FM011630 06015KT P6SM VCTS SCT030CB BKN050
      TEMPO 0117/0121 4SM TSRA BKN030CB
     FM012330 11010KT P6SM FEW025 SCT050=

USA.gov is the U.S. government's official web portal to all federal, state and local government web resources and services.